Time;durP1;ratioP1;P1;durP2;ratioP2;P2;SDS_P1;SDS_P2;PMS_P1;PMS_P2;Temp;Humidity;BMP_temperature;BMP_pressure;BME280_temperature;BME280_humidity;BME280_pressure;Samples;Min_cycle;Max_cycle;Signal;HPM_P1;HPM_P2
2021/10/15 00:00:34;;;;;;;12.50;10.07;;;;;;;9.47;78.65;102152.28;6120702;23;20432;-61
2021/10/15 00:03:00;;;;;;;11.70;10.20;;;;;;;9.36;79.12;102145.09;6122167;23;20206;-60
2021/10/15 00:05:30;;;;;;;12.53;10.47;;;;;;;9.45;79.26;102142.75;6122004;23;20607;-60
2021/10/15 00:07:56;;;;;;;11.97;9.50;;;;;;;9.57;79.29;102143.22;6121954;23;20533;-60
2021/10/15 00:10:21;;;;;;;13.77;9.27;;;;;;;9.00;78.94;102065.88;6120605;23;20629;-61
2021/10/15 00:12:47;;;;;;;12.03;10.07;;;;;;;8.95;79.05;102050.44;6121910;23;20595;-61
2021/10/15 00:15:12;;;;;;;11.97;10.10;;;;;;;9.51;78.85;102144.78;6122201;23;20607;-61
2021/10/15 00:17:38;;;;;;;12.57;9.90;;;;;;;9.40;78.56;102121.00;6121869;23;20168;-61
2021/10/15 00:20:05;;;;;;;12.37;9.53;;;;;;;9.24;78.58;102107.50;6121159;23;20655;-61
2021/10/15 00:22:31;;;;;;;13.40;10.37;;;;;;;9.30;78.98;102102.38;6121382;23;20183;-61
2021/10/15 00:24:56;;;;;;;12.10;9.80;;;;;;;9.57;79.00;102134.13;6122114;23;20159;-61
2021/10/15 00:27:22;;;;;;;11.53;9.27;;;;;;;9.50;78.15;102147.94;6121991;23;20161;-60
2021/10/15 00:29:47;;;;;;;11.10;9.93;;;;;;;9.68;78.48;102151.59;6120715;23;20301;-60
2021/10/15 00:32:13;;;;;;;11.23;9.33;;;;;;;9.61;78.33;102146.81;6120962;23;20187;-60
2021/10/15 00:34:39;;;;;;;11.77;9.63;;;;;;;9.66;78.32;102146.44;6122296;23;20162;-61
2021/10/15 00:37:05;;;;;;;10.63;8.73;;;;;;;9.63;78.46;102144.44;6121502;23;20599;-61
2021/10/15 00:39:30;;;;;;;11.60;9.20;;;;;;;9.55;78.64;102142.84;6122114;23;20191;-61
2021/10/15 00:41:56;;;;;;;12.07;9.00;;;;;;;9.57;78.84;102131.34;6120091;23;20152;-61
2021/10/15 00:44:22;;;;;;;11.97;9.37;;;;;;;9.79;78.72;102141.34;6121561;23;20152;-58
2021/10/15 00:46:47;;;;;;;11.03;9.10;;;;;;;9.72;78.99;102121.91;6122273;23;20479;-58
2021/10/15 00:49:15;;;;;;;10.03;8.90;;;;;;;9.64;78.38;102134.16;6121585;23;20163;-59
2021/10/15 00:51:42;;;;;;;11.47;8.67;;;;;;;9.68;78.55;102132.97;6119570;23;20178;-61
2021/10/15 00:54:10;;;;;;;9.97;8.50;;;;;;;9.69;78.58;102131.03;6118669;23;20221;-61
2021/10/15 00:56:36;;;;;;;10.37;8.77;;;;;;;9.79;78.44;102122.72;6120061;23;20166;-62
2021/10/15 00:59:02;;;;;;;10.33;8.17;;;;;;;9.50;78.41;102092.59;6119763;23;20522;-61
2021/10/15 01:01:29;;;;;;;10.57;8.57;;;;;;;9.66;78.55;102117.94;6120258;23;20160;-60
2021/10/15 01:03:58;;;;;;;11.17;8.57;;;;;;;9.71;78.09;102114.81;6120085;23;20221;-60
2021/10/15 01:06:23;;;;;;;9.83;8.27;;;;;;;9.35;77.88;102055.78;6121438;23;20231;-60
2021/10/15 01:08:49;;;;;;;11.03;8.37;;;;;;;9.77;77.80;102113.22;6120114;23;20581;-60
2021/10/15 01:11:16;;;;;;;9.60;7.73;;;;;;;9.35;77.44;102052.22;6120065;23;20184;-60
2021/10/15 01:13:41;;;;;;;9.83;7.77;;;;;;;9.76;78.07;102106.13;6121541;23;20161;-60
2021/10/15 01:16:09;;;;;;;10.90;8.13;;;;;;;9.62;77.71;102087.50;6121583;23;20185;-60
2021/10/15 01:18:36;;;;;;;9.87;7.87;;;;;;;9.64;77.89;102095.41;6121400;23;20594;-60
2021/10/15 01:21:02;;;;;;;10.23;7.97;;;;;;;9.52;77.63;102068.88;6120153;23;20186;-60
2021/10/15 01:23:27;;;;;;;8.30;7.17;;;;;;;9.74;77.89;102098.19;6121357;23;20168;-61
2021/10/15 01:25:53;;;;;;;8.90;7.57;;;;;;;9.77;77.79;102102.97;6122737;23;20200;-60
2021/10/15 01:28:24;;;;;;;10.40;8.50;;;;;;;9.79;78.02;102100.59;6123249;23;20646;-61
2021/10/15 01:30:50;;;;;;;11.17;8.50;;;;;;;9.80;77.98;102102.19;6121436;23;20202;-61
2021/10/15 01:33:16;;;;;;;10.87;8.70;;;;;;;9.79;78.35;102099.81;6122859;23;20577;-61
2021/10/15 01:35:41;;;;;;;10.20;8.23;;;;;;;9.56;78.38;102049.50;6123324;23;20155;-60
2021/10/15 01:38:07;;;;;;;10.17;7.93;;;;;;;9.84;78.17;102094.66;6122389;23;20613;-58
2021/10/15 01:40:32;;;;;;;9.80;7.83;;;;;;;9.91;78.00;102078.09;6121270;23;20743;-58
2021/10/15 01:42:58;;;;;;;10.07;7.77;;;;;;;9.87;78.08;102082.81;6123428;23;20165;-58
2021/10/15 01:45:25;;;;;;;9.47;8.47;;;;;;;9.91;78.12;102085.59;6122935;23;20155;-58
2021/10/15 01:47:51;;;;;;;8.83;7.37;;;;;;;9.93;77.67;102086.78;6123315;23;20153;-58
2021/10/15 01:50:17;;;;;;;11.67;7.93;;;;;;;9.92;77.86;102084.41;6120875;23;20159;-58
2021/10/15 01:52:43;;;;;;;10.03;8.40;;;;;;;10.01;77.68;102082.03;6123103;23;20147;-58
2021/10/15 01:55:10;;;;;;;8.60;7.07;;;;;;;10.00;77.76;102075.69;6121933;23;20599;-58
2021/10/15 01:57:37;;;;;;;9.13;7.07;;;;;;;10.02;77.33;102083.63;6119934;23;20178;-58
2021/10/15 02:00:05;;;;;;;8.17;6.57;;;;;;;9.63;76.84;102022.63;6121938;23;20182;-60
2021/10/15 02:02:30;;;;;;;8.27;7.07;;;;;;;9.94;77.55;102073.75;6122583;23;20181;-59
2021/10/15 02:04:57;;;;;;;8.33;7.20;;;;;;;9.86;77.68;102064.63;6123215;23;20153;-60
2021/10/15 02:07:23;;;;;;;9.33;7.30;;;;;;;9.83;77.27;102065.41;6122660;23;20157;-60
2021/10/15 02:09:48;;;;;;;8.50;7.07;;;;;;;9.98;77.74;102071.75;6122406;23;20503;-60
2021/10/15 02:12:14;;;;;;;7.80;6.90;;;;;;;9.67;77.76;102023.44;6122110;23;20157;-60
2021/10/15 02:14:39;;;;;;;9.13;6.77;;;;;;;9.99;77.55;102065.81;6123020;23;20150;-60
2021/10/15 02:17:05;;;;;;;8.63;7.10;;;;;;;9.91;77.71;102064.25;6123035;23;20197;-59
2021/10/15 02:19:30;;;;;;;9.17;7.10;;;;;;;9.67;77.61;102030.94;6122820;23;20237;-59
2021/10/15 02:21:56;;;;;;;9.07;7.60;;;;;;;9.60;77.87;102023.44;6121679;23;20498;-60
2021/10/15 02:24:22;;;;;;;9.67;7.07;;;;;;;9.60;77.95;102017.09;6122791;23;20167;-60
2021/10/15 02:26:48;;;;;;;9.30;7.00;;;;;;;9.89;77.79;102060.28;6123178;23;20154;-60
2021/10/15 02:29:14;;;;;;;8.03;7.10;;;;;;;9.45;77.93;101987.81;6122776;23;20668;-59
2021/10/15 02:31:40;;;;;;;9.47;6.77;;;;;;;9.97;77.92;102059.88;6121130;23;20265;-59
2021/10/15 02:34:05;;;;;;;9.03;7.10;;;;;;;9.97;77.72;102059.09;6123059;23;20604;-60
2021/10/15 02:36:31;;;;;;;8.43;6.73;;;;;;;9.94;77.58;102065.44;6122390;23;20215;-59
2021/10/15 02:38:56;;;;;;;7.33;6.27;;;;;;;9.87;77.55;102059.84;6122941;23;20150;-60
2021/10/15 02:41:22;;;;;;;9.10;6.50;;;;;;;9.47;77.62;101991.75;6120781;23;20185;-60
2021/10/15 02:43:47;;;;;;;8.27;6.23;;;;;;;9.94;77.68;102060.66;6123157;23;20162;-60
2021/10/15 02:46:14;;;;;;;7.60;6.10;;;;;;;9.90;77.50;102056.31;6122256;23;20166;-60
2021/10/15 02:48:40;;;;;;;7.37;6.40;;;;;;;9.76;77.82;102057.09;6122662;23;20157;-59
2021/10/15 02:51:06;;;;;;;7.70;6.13;;;;;;;9.25;77.95;101990.13;6120947;23;20226;-59
2021/10/15 02:53:31;;;;;;;7.80;6.37;;;;;;;9.87;78.09;102046.00;6122456;23;20161;-60
2021/10/15 02:55:57;;;;;;;7.63;6.10;;;;;;;9.77;77.88;102057.84;6122425;23;20155;-60
2021/10/15 02:58:22;;;;;;;7.00;5.63;;;;;;;9.60;77.91;102026.22;6121300;23;20158;-59
2021/10/15 03:00:50;;;;;;;7.07;6.37;;;;;;;9.86;78.14;102041.66;6120723;23;20185;-59
2021/10/15 03:03:16;;;;;;;7.50;6.17;;;;;;;9.80;77.92;102040.47;6120611;23;20238;-59
2021/10/15 03:05:42;;;;;;;7.20;6.13;;;;;;;9.83;77.86;102048.78;6122651;23;20233;-59
2021/10/15 03:08:08;;;;;;;7.60;6.17;;;;;;;9.57;77.79;101985.47;6120411;23;20154;-60
2021/10/15 03:10:33;;;;;;;8.73;6.57;;;;;;;9.84;77.62;102052.34;6120671;23;20161;-60
2021/10/15 03:12:59;;;;;;;7.90;6.20;;;;;;;9.77;77.69;102039.28;6122473;23;20153;-59
2021/10/15 03:15:24;;;;;;;7.60;6.17;;;;;;;9.75;77.87;102041.66;6122428;23;20631;-59
2021/10/15 03:17:50;;;;;;;9.67;7.13;;;;;;;9.23;78.27;101961.28;6122015;23;20162;-60
2021/10/15 03:20:15;;;;;;;7.87;6.63;;;;;;;9.66;78.25;102032.94;6120558;23;20398;-60
2021/10/15 03:22:40;;;;;;;8.07;6.60;;;;;;;9.69;78.36;102026.59;6122555;23;20150;-59
2021/10/15 03:25:06;;;;;;;8.20;6.53;;;;;;;9.73;78.48;102035.72;6122418;23;20619;-59
2021/10/15 03:27:32;;;;;;;8.27;6.60;;;;;;;9.66;78.09;102027.41;6119314;23;20158;-60
2021/10/15 03:29:57;;;;;;;9.23;6.73;;;;;;;9.64;78.34;102021.44;6120300;23;20206;-60
2021/10/15 03:32:23;;;;;;;8.17;7.13;;;;;;;9.63;78.47;102027.41;6121609;23;20160;-59
2021/10/15 03:34:48;;;;;;;8.57;6.97;;;;;;;9.37;78.26;102000.06;6122178;23;20153;-59
2021/10/15 03:37:14;;;;;;;11.00;7.13;;;;;;;9.42;78.70;102000.44;6121668;23;20189;-59
2021/10/15 03:39:39;;;;;;;8.90;7.43;;;;;;;9.37;78.64;101983.47;6122144;23;20162;-59
2021/10/15 03:42:05;;;;;;;7.90;7.00;;;;;;;9.59;78.73;102032.13;6121272;23;20180;-59
2021/10/15 03:44:30;;;;;;;9.13;7.10;;;;;;;9.25;79.05;101981.03;6122156;23;20177;-60
2021/10/15 03:46:55;;;;;;;9.47;7.40;;;;;;;9.55;79.24;102026.59;6122021;23;20174;-60
2021/10/15 03:49:21;;;;;;;8.60;6.53;;;;;;;9.37;78.50;102000.81;6122320;23;20166;-60
2021/10/15 03:51:46;;;;;;;7.27;6.33;;;;;;;9.49;78.64;102019.81;6120319;23;20151;-60
2021/10/15 03:54:12;;;;;;;7.47;6.17;;;;;;;9.64;78.40;102017.91;6121864;23;20160;-60
2021/10/15 03:56:37;;;;;;;8.57;6.63;;;;;;;9.47;78.14;101990.97;6121961;23;20155;-60
2021/10/15 03:59:03;;;;;;;7.13;6.00;;;;;;;9.71;78.28;102026.22;6121373;23;20519;-60
2021/10/15 04:01:29;;;;;;;8.30;5.40;;;;;;;9.67;78.14;102020.69;6118820;23;20268;-60
2021/10/15 04:03:54;;;;;;;7.90;5.83;;;;;;;9.62;78.39;102015.53;6122167;23;20205;-60
2021/10/15 04:06:19;;;;;;;6.90;5.63;;;;;;;9.55;78.36;102018.28;6121570;23;20165;-60
2021/10/15 04:08:45;;;;;;;7.20;5.43;;;;;;;9.23;78.26;101961.28;6120620;23;20187;-60
2021/10/15 04:11:10;;;;;;;7.83;5.73;;;;;;;9.31;78.49;101979.47;6120191;23;20170;-61
2021/10/15 04:13:36;;;;;;;6.87;5.53;;;;;;;9.67;78.88;102006.03;6121698;23;20667;-60
2021/10/15 04:16:02;;;;;;;8.17;5.67;;;;;;;9.68;78.53;102013.94;6121748;23;20182;-60
2021/10/15 04:18:28;;;;;;;7.63;5.27;;;;;;;9.68;78.72;102007.63;6120701;23;20514;-60
2021/10/15 04:20:54;;;;;;;6.20;5.10;;;;;;;9.75;78.34;102018.72;6120032;23;20189;-61
2021/10/15 04:23:20;;;;;;;7.77;5.00;;;;;;;9.56;78.38;102010.75;6122452;23;20170;-60
2021/10/15 04:25:45;;;;;;;7.17;5.60;;;;;;;9.52;78.67;101996.91;6121986;23;20661;-60
2021/10/15 04:28:11;;;;;;;7.97;5.30;;;;;;;9.17;79.04;101943.50;6120869;23;20240;-60
2021/10/15 04:30:36;;;;;;;7.73;5.37;;;;;;;9.53;79.15;101987.44;6119864;23;20552;-60
2021/10/15 04:33:02;;;;;;;6.67;5.27;;;;;;;9.67;78.79;102000.50;6121495;23;20153;-60
2021/10/15 04:35:28;;;;;;;8.80;6.10;;;;;;;9.71;78.81;101995.75;6121074;23;20162;-60
2021/10/15 04:37:53;;;;;;;11.00;5.30;;;;;;;9.29;78.47;101935.63;6120626;23;20158;-60
2021/10/15 04:40:19;;;;;;;8.90;6.17;;;;;;;9.66;78.86;102002.50;6115936;23;20158;-60
2021/10/15 04:42:44;;;;;;;6.37;5.40;;;;;;;9.71;79.08;101995.75;6115179;23;20501;-60
2021/10/15 04:45:10;;;;;;;6.47;5.53;;;;;;;9.70;78.92;101994.19;6116773;23;20165;-61
2021/10/15 04:47:36;;;;;;;8.33;5.23;;;;;;;9.63;79.01;101996.97;6111212;23;20485;-60
2021/10/15 04:50:02;;;;;;;7.60;5.90;;;;;;;9.48;79.12;101973.19;6117628;23;20186;-60
2021/10/15 04:52:27;;;;;;;6.70;5.27;;;;;;;9.44;79.59;101975.16;6103525;23;20609;-60
2021/10/15 04:54:53;;;;;;;8.67;5.67;;;;;;;9.61;79.62;102002.88;6111671;23;20248;-60
2021/10/15 04:57:18;;;;;;;7.20;5.50;;;;;;;9.68;79.46;102005.66;6114417;23;20157;-60
2021/10/15 04:59:44;;;;;;;7.40;5.90;;;;;;;9.68;79.52;101996.56;6102430;23;20154;-60
2021/10/15 05:02:09;;;;;;;6.70;5.47;;;;;;;9.30;79.80;101956.56;6114599;23;20530;-60
2021/10/15 05:04:35;;;;;;;7.53;5.17;;;;;;;9.66;79.60;102004.44;6119831;23;20617;-60
2021/10/15 05:07:00;;;;;;;6.53;5.07;;;;;;;9.60;79.40;102004.06;6118644;23;20237;-60
2021/10/15 05:11:57;;;;;;;7.23;6.17;;;;;;;9.51;80.15;101994.53;6116389;23;20145;-60
2021/10/15 05:14:23;;;;;;;7.17;5.93;;;;;;;9.46;80.28;101997.69;6118151;23;20158;-60
2021/10/15 05:16:52;;;;;;;6.83;5.97;;;;;;;9.50;80.33;102004.03;6119760;23;20178;-60
2021/10/15 05:19:18;;;;;;;5.57;4.97;;;;;;;9.58;79.79;102003.66;6111023;23;20177;-59
2021/10/15 05:21:44;;;;;;;7.60;5.60;;;;;;;9.51;79.99;102005.59;6116227;23;20874;-59
2021/10/15 05:24:09;;;;;;;6.53;5.10;;;;;;;9.27;80.48;101964.84;6117926;23;20544;-60
2021/10/15 05:26:34;;;;;;;8.10;6.07;;;;;;;9.54;80.35;101996.53;6119797;23;20162;-60
2021/10/15 05:29:00;;;;;;;6.40;5.50;;;;;;;9.54;80.28;101980.69;6117614;23;20151;-59
2021/10/15 05:31:26;;;;;;;8.47;5.93;;;;;;;9.60;80.26;101995.75;6113572;23;20220;-59
2021/10/15 05:33:51;;;;;;;7.97;6.23;;;;;;;9.53;80.15;101981.88;6117494;23;20190;-59
2021/10/15 05:36:17;;;;;;;7.27;5.37;;;;;;;9.35;80.40;101955.38;6117035;23;20165;-59
2021/10/15 05:38:42;;;;;;;6.43;5.40;;;;;;;9.70;80.23;102008.03;6115591;23;20158;-59
2021/10/15 05:41:08;;;;;;;6.73;5.60;;;;;;;9.75;79.75;101999.34;6110718;23;20185;-59
2021/10/15 05:43:33;;;;;;;7.07;5.87;;;;;;;9.62;79.36;101971.25;6117689;23;20160;-59
2021/10/15 05:45:58;;;;;;;7.77;6.70;;;;;;;9.73;79.69;101996.19;6118802;23;20518;-59
2021/10/15 05:48:24;;;;;;;7.63;6.30;;;;;;;9.63;79.80;101996.97;6117083;23;20157;-59
2021/10/15 05:50:50;;;;;;;7.80;5.70;;;;;;;9.80;79.75;101998.94;6113104;23;20160;-59
2021/10/15 05:53:18;;;;;;;7.83;5.70;;;;;;;9.85;79.87;101987.47;6117514;23;20753;-59
2021/10/15 06:01:05;;;;;;;7.23;6.00;;;;;;;9.85;79.75;101993.00;6114478;23;20192;-59
2021/10/15 06:03:31;;;;;;;8.00;5.90;;;;;;;9.79;79.87;101986.28;6116441;23;20500;-59
2021/10/15 06:16:35;;;;;;;7.20;5.30;;;;;;;9.81;80.17;102003.28;6118817;23;20153;-59
2021/10/15 06:19:11;;;;;;;6.03;5.43;;;;;;;9.78;79.78;102007.63;6118748;23;20173;-59
2021/10/15 06:21:37;;;;;;;6.67;5.50;;;;;;;9.51;79.74;101950.25;6117048;23;20170;-59
2021/10/15 06:24:03;;;;;;;7.00;5.53;;;;;;;9.82;79.66;101999.31;6118375;23;20161;-59
2021/10/15 06:26:28;;;;;;;8.13;6.47;;;;;;;9.78;80.07;102001.31;6117163;23;20560;-59
2021/10/15 06:28:54;;;;;;;7.60;5.37;;;;;;;9.90;80.06;101995.41;6117366;23;20197;-59
2021/10/15 06:31:19;;;;;;;6.83;5.70;;;;;;;9.61;79.82;101966.09;6115836;23;20522;-58
2021/10/15 06:33:45;;;;;;;7.10;5.90;;;;;;;9.75;80.09;101979.94;6118191;23;20212;-59
2021/10/15 06:36:11;;;;;;;6.73;5.97;;;;;;;9.91;79.98;101997.78;6116470;23;20286;-59
2021/10/15 06:38:36;;;;;;;7.03;6.17;;;;;;;9.96;79.62;101986.31;6115557;23;20154;-58
2021/10/15 06:41:02;;;;;;;6.77;5.43;;;;;;;10.00;79.37;101997.38;6111501;23;20617;-58
2021/10/15 06:43:27;;;;;;;7.23;5.30;;;;;;;9.65;79.34;101936.44;6112903;23;20507;-58
2021/10/15 06:45:53;;;;;;;6.13;5.00;;;;;;;9.98;79.47;101980.34;6108767;23;20173;-58
2021/10/15 06:48:19;;;;;;;9.87;6.63;;;;;;;9.98;79.55;101992.22;6116032;23;20581;-59
2021/10/15 06:50:44;;;;;;;6.70;5.90;;;;;;;9.89;79.62;101991.81;6115029;23;20233;-59
2021/10/15 06:53:10;;;;;;;8.50;6.17;;;;;;;9.97;79.85;101996.19;6117173;23;20154;-58
2021/10/15 06:55:37;;;;;;;6.90;5.47;;;;;;;9.94;79.70;101994.19;6117391;23;20257;-58
2021/10/15 06:58:03;;;;;;;8.43;6.20;;;;;;;9.67;79.94;101962.53;6116672;23;20176;-58
2021/10/15 07:00:29;;;;;;;8.83;6.03;;;;;;;9.90;80.31;101990.63;6114004;23;20201;-58
2021/10/15 07:02:55;;;;;;;9.17;6.67;;;;;;;9.58;79.93;101947.53;6117618;23;20151;-58
2021/10/15 07:05:20;;;;;;;6.77;5.17;;;;;;;9.81;80.41;101981.94;6117884;23;20166;-58
2021/10/15 07:07:46;;;;;;;6.37;5.20;;;;;;;9.79;80.49;101964.16;6118490;23;20588;-58
2021/10/15 07:10:11;;;;;;;5.60;5.00;;;;;;;9.80;80.48;101974.84;6115743;23;20161;-58
2021/10/15 07:12:40;;;;;;;5.97;5.03;;;;;;;9.92;80.57;101968.09;6117526;23;20194;-58
2021/10/15 07:15:11;;;;;;;5.63;4.93;;;;;;;9.88;80.47;101957.03;6119549;23;20156;-58
2021/10/15 07:17:37;;;;;;;5.17;4.53;;;;;;;9.91;80.38;101966.50;6116664;23;20623;-58
2021/10/15 07:20:04;;;;;;;5.47;4.63;;;;;;;9.98;80.28;101963.72;6115390;23;20165;-58
2021/10/15 07:22:30;;;;;;;8.13;4.80;;;;;;;10.00;80.48;101970.47;6115605;23;20193;-59
2021/10/15 07:24:55;;;;;;;6.90;4.63;;;;;;;10.19;80.08;101969.31;6115577;23;20207;-58
2021/10/15 07:27:21;;;;;;;5.67;4.73;;;;;;;10.09;79.77;101947.97;6116554;23;20158;-58
2021/10/15 07:29:47;;;;;;;5.57;4.30;;;;;;;10.05;79.32;101938.84;6117931;23;20247;-58
2021/10/15 07:32:12;;;;;;;4.50;3.93;;;;;;;10.09;79.62;101957.03;6115057;23;20156;-58
2021/10/15 07:34:38;;;;;;;6.20;4.10;;;;;;;10.30;79.82;101967.31;6117561;23;20154;-58
2021/10/15 07:37:05;;;;;;;6.07;4.17;;;;;;;10.34;79.21;101962.53;6117405;23;20191;-58
2021/10/15 07:39:31;;;;;;;5.27;3.90;;;;;;;10.35;78.93;101980.78;6115982;23;20927;-58
2021/10/15 07:41:56;;;;;;;4.23;3.63;;;;;;;10.21;78.69;101953.06;6115699;23;20252;-58
2021/10/15 07:44:22;;;;;;;5.10;4.20;;;;;;;10.35;79.03;101964.91;6117618;23;20161;-58
2021/10/15 07:46:47;;;;;;;4.93;4.17;;;;;;;10.33;78.78;101963.75;6116990;23;20488;-58
2021/10/15 07:49:13;;;;;;;7.10;4.63;;;;;;;10.29;78.90;101979.56;6116912;23;20164;-58
2021/10/15 07:51:39;;;;;;;4.77;4.23;;;;;;;10.31;79.35;101966.13;6116018;23;20585;-59
2021/10/15 07:54:04;;;;;;;5.40;4.07;;;;;;;10.27;79.00;101963.38;6116178;23;20185;-58
2021/10/15 07:56:33;;;;;;;5.10;4.17;;;;;;;10.04;79.18;101920.66;6116818;23;20229;-58
2021/10/15 07:58:59;;;;;;;4.93;4.43;;;;;;;10.27;79.35;101955.06;6113825;23;20214;-58
2021/10/15 08:01:25;;;;;;;5.20;3.60;;;;;;;10.43;78.78;101976.78;6106183;23;20265;-58
2021/10/15 08:03:52;;;;;;;4.97;3.87;;;;;;;10.41;78.69;101984.72;6116379;23;20512;-58
2021/10/15 08:06:18;;;;;;;6.03;3.97;;;;;;;10.29;78.80;101974.84;6115775;23;20954;-59
2021/10/15 08:08:44;;;;;;;4.80;3.90;;;;;;;10.33;79.09;101966.50;6116413;23;20184;-58
2021/10/15 08:11:13;;;;;;;4.87;3.87;;;;;;;10.49;79.00;101967.66;6114499;23;20150;-58
2021/10/15 08:13:39;;;;;;;4.30;3.73;;;;;;;10.41;78.80;101960.53;6116321;23;20157;-59
2021/10/15 08:16:04;;;;;;;5.07;3.67;;;;;;;10.40;78.67;101960.97;6116777;23;20159;-58
2021/10/15 08:18:30;;;;;;;4.00;3.37;;;;;;;10.33;78.93;101960.97;6115316;23;20608;-58
2021/10/15 08:20:57;;;;;;;4.73;3.57;;;;;;;10.27;79.09;101949.50;6114369;23;20192;-58
2021/10/15 08:23:25;;;;;;;5.30;4.03;;;;;;;10.31;79.11;101938.41;6116181;23;20160;-59
2021/10/15 08:25:50;;;;;;;4.40;3.63;;;;;;;10.27;79.31;101946.75;6116737;23;20191;-58
2021/10/15 08:28:16;;;;;;;5.50;3.80;;;;;;;10.26;79.46;101939.59;6113176;23;20161;-58
2021/10/15 08:30:42;;;;;;;4.63;3.90;;;;;;;10.04;79.50;101920.66;6113980;23;20208;-58
2021/10/15 08:33:08;;;;;;;4.63;3.90;;;;;;;10.41;79.71;101940.38;6111155;23;20275;-59
2021/10/15 08:35:34;;;;;;;4.07;3.47;;;;;;;10.41;79.59;101940.38;6116075;23;20602;-59
2021/10/15 08:37:59;;;;;;;4.70;4.00;;;;;;;10.44;79.66;101945.09;6114398;23;20184;-58
2021/10/15 08:40:27;;;;;;;4.93;3.93;;;;;;;10.50;79.44;101962.94;6108621;23;20233;-59
2021/10/15 08:42:56;;;;;;;4.90;4.00;;;;;;;10.51;79.55;101964.50;6114211;23;20142;-59
2021/10/15 08:45:30;;;;;;;4.00;3.60;;;;;;;10.52;79.20;101968.84;6101876;23;20997;-59
2021/10/15 08:47:56;;;;;;;4.23;3.47;;;;;;;10.62;79.10;101965.28;6108754;23;20139;-59
2021/10/15 08:50:22;;;;;;;4.73;3.23;;;;;;;10.49;78.37;101942.72;6108995;23;20156;-59
2021/10/15 08:52:48;;;;;;;4.07;3.43;;;;;;;10.55;78.47;101957.75;6114861;23;20171;-58
2021/10/15 08:55:14;;;;;;;4.73;3.60;;;;;;;10.64;78.69;101949.00;6113294;23;20266;-58
2021/10/15 08:57:50;;;;;;;4.83;3.70;;;;;;;10.75;78.22;101947.00;6114270;23;20151;-59
2021/10/15 09:00:41;;;;;;;5.93;3.93;;;;;;;10.75;78.28;101952.53;6111460;23;20602;-59
2021/10/15 09:03:12;;;;;;;4.23;3.53;;;;;;;10.87;78.38;101952.88;6114585;23;20217;-59
2021/10/15 09:05:38;;;;;;;5.17;4.10;;;;;;;10.91;77.03;101950.13;6114923;23;20153;-58
2021/10/15 09:08:04;;;;;;;4.63;3.80;;;;;;;10.79;77.58;101934.72;6115379;23;20161;-58
2021/10/15 09:10:32;;;;;;;5.03;4.30;;;;;;;10.45;77.64;101891.28;6112844;23;20503;-58
2021/10/15 09:12:57;;;;;;;4.60;4.13;;;;;;;10.74;78.15;101940.66;6111263;23;20140;-59
2021/10/15 09:15:36;;;;;;;4.53;3.90;;;;;;;10.88;78.12;101935.06;6114132;23;20584;-59
2021/10/15 09:18:16;;;;;;;5.60;4.17;;;;;;;10.76;78.08;101935.50;6114014;23;20204;-59
2021/10/15 09:20:43;;;;;;;4.50;3.93;;;;;;;10.87;78.00;101946.56;6114049;23;20272;-59
2021/10/15 09:23:10;;;;;;;5.53;4.30;;;;;;;10.94;77.76;101932.66;6115738;23;20603;-58
2021/10/15 09:25:39;;;;;;;6.20;4.33;;;;;;;11.26;77.36;101950.72;6116578;23;20556;-59
2021/10/15 09:28:13;;;;;;;6.30;4.37;;;;;;;11.11;76.99;101952.00;6115697;23;20150;-58
2021/10/15 09:30:41;;;;;;;6.10;4.80;;;;;;;11.04;76.91;101948.47;6114508;23;20601;-58
2021/10/15 09:33:08;;;;;;;6.63;5.33;;;;;;;11.07;77.09;101945.66;6116233;23;20165;-59
2021/10/15 09:35:33;;;;;;;7.10;5.57;;;;;;;10.98;76.92;101942.56;6115468;23;20523;-59
2021/10/15 09:38:02;;;;;;;6.50;5.60;;;;;;;10.83;77.22;101937.47;6114920;23;20149;-59
2021/10/15 09:40:33;;;;;;;7.27;5.63;;;;;;;10.93;77.32;101945.75;6113518;23;20164;-58
2021/10/15 09:43:02;;;;;;;7.07;5.83;;;;;;;10.96;77.16;101936.59;6117248;23;20146;-59
2021/10/15 09:45:40;;;;;;;7.03;5.93;;;;;;;10.99;77.12;101937.78;6117829;23;20160;-59
2021/10/15 09:48:22;;;;;;;6.80;6.10;;;;;;;10.94;77.48;101925.13;6119578;23;20146;-59
2021/10/15 09:51:10;;;;;;;7.50;6.13;;;;;;;10.84;77.82;101931.53;6119060;23;20150;-59
2021/10/15 09:53:36;;;;;;;7.80;6.37;;;;;;;10.71;77.69;101933.13;6121094;23;20220;-59
2021/10/15 09:56:02;;;;;;;8.10;6.70;;;;;;;10.74;78.11;101928.78;6120795;23;20504;-59
2021/10/15 09:58:28;;;;;;;7.80;6.30;;;;;;;10.76;78.24;101929.19;6120578;23;20154;-59
2021/10/15 10:00:54;;;;;;;8.43;6.27;;;;;;;10.79;78.05;101929.16;6118750;23;20750;-59
2021/10/15 10:03:22;;;;;;;7.60;6.57;;;;;;;10.49;78.44;101895.59;6119171;23;20208;-59
2021/10/15 10:05:49;;;;;;;8.57;7.07;;;;;;;10.79;78.35;101920.03;6119410;23;20290;-59
2021/10/15 10:08:15;;;;;;;8.00;6.50;;;;;;;10.77;78.25;101914.88;6119015;23;20165;-59
2021/10/15 10:10:43;;;;;;;8.07;6.90;;;;;;;10.63;78.53;101917.75;6118508;23;20576;-59
2021/10/15 10:13:11;;;;;;;9.17;7.20;;;;;;;10.76;78.51;101920.88;6119065;23;20169;-59
2021/10/15 10:15:41;;;;;;;7.63;6.10;;;;;;;10.84;78.41;101911.31;6120361;23;20153;-59
2021/10/15 10:21:01;;;;;;;9.23;6.53;;;;;;;10.81;78.29;101912.13;6117469;23;20275;-59
2021/10/15 10:23:27;;;;;;;8.73;7.17;;;;;;;10.76;78.48;101904.22;6118921;23;20217;-59
2021/10/15 10:26:01;;;;;;;8.57;7.30;;;;;;;10.50;78.77;101850.06;6119593;23;20185;-59
2021/10/15 10:28:28;;;;;;;8.37;6.53;;;;;;;10.91;78.46;101891.88;6118109;23;20183;-59
2021/10/15 10:30:57;;;;;;;7.37;6.30;;;;;;;11.01;78.32;101891.81;6115284;23;20205;-59
2021/10/15 10:33:24;;;;;;;7.30;5.97;;;;;;;10.87;77.89;101866.91;6115533;23;20168;-59
2021/10/15 10:35:51;;;;;;;8.07;6.10;;;;;;;11.12;78.13;101900.84;6118099;23;20157;-59
2021/10/15 10:38:20;;;;;;;9.03;6.30;;;;;;;11.18;77.82;101888.13;6116675;23;20162;-59
2021/10/15 10:41:00;;;;;;;6.33;5.23;;;;;;;11.18;77.39;101888.13;6116981;23;20671;-59
2021/10/15 10:43:54;;;;;;;7.83;6.00;;;;;;;10.85;77.13;101838.81;6117411;23;20157;-59
2021/10/15 10:46:19;;;;;;;7.60;5.97;;;;;;;11.23;77.75;101882.16;6116471;23;20257;-59
2021/10/15 10:48:51;;;;;;;7.30;5.73;;;;;;;11.29;77.74;101877.78;6118336;23;20181;-59
2021/10/15 10:51:16;;;;;;;6.80;5.50;;;;;;;11.40;77.44;101881.25;6115396;23;20233;-59
2021/10/15 10:53:57;;;;;;;6.07;5.07;;;;;;;11.41;77.01;101877.28;6118371;23;20245;-59
2021/10/15 10:56:41;;;;;;;6.90;5.40;;;;;;;11.31;77.12;101863.47;6118354;23;20491;-59
2021/10/15 10:59:16;;;;;;;6.00;5.40;;;;;;;11.25;76.98;101874.22;6119287;23;20157;-59
2021/10/15 11:01:45;;;;;;;8.20;5.40;;;;;;;11.22;76.94;101863.94;6116946;23;20188;-59
2021/10/15 11:04:27;;;;;;;7.70;5.70;;;;;;;11.28;76.63;101862.28;6118085;23;20154;-59
2021/10/15 11:06:58;;;;;;;7.43;5.73;;;;;;;11.34;76.76;101859.88;6115643;23;20162;-59
2021/10/15 11:09:41;;;;;;;6.20;5.23;;;;;;;11.46;76.68;101859.38;6113743;23;20157;-60
2021/10/15 11:12:08;;;;;;;7.80;5.83;;;;;;;11.31;76.99;101857.91;6116480;23;20243;-59
2021/10/15 11:14:53;;;;;;;7.30;6.10;;;;;;;11.20;77.16;101854.44;6117560;23;20162;-60
2021/10/15 11:17:48;;;;;;;6.80;5.57;;;;;;;11.16;77.07;101856.44;6119408;23;20150;-59
2021/10/15 11:20:17;;;;;;;7.17;6.07;;;;;;;11.04;77.38;101843.84;6112708;23;20150;-60
2021/10/15 11:22:56;;;;;;;6.83;5.67;;;;;;;11.10;77.29;101846.97;6115258;23;20531;-59
2021/10/15 11:25:25;;;;;;;8.63;6.23;;;;;;;11.12;77.07;101850.91;6114651;23;20210;-59
2021/10/15 11:27:57;;;;;;;7.17;5.83;;;;;;;11.23;77.05;101851.63;6117442;23;20158;-59
2021/10/15 11:30:27;;;;;;;7.33;5.83;;;;;;;11.20;76.86;101846.09;6112829;23;20208;-59
2021/10/15 11:32:53;;;;;;;7.90;6.13;;;;;;;11.33;77.30;101838.88;6112372;23;20183;-59
2021/10/15 11:35:32;;;;;;;8.53;6.50;;;;;;;11.29;76.70;101844.47;6118813;23;20164;-59
2021/10/15 11:38:19;;;;;;;7.47;6.07;;;;;;;11.11;77.23;101837.44;6118503;23;20646;-59
2021/10/15 11:40:49;;;;;;;7.03;5.93;;;;;;;11.12;77.04;101839.81;6116456;23;20186;-58
2021/10/15 11:43:31;;;;;;;7.47;6.17;;;;;;;11.20;77.19;101838.59;6118249;23;20213;-59
2021/10/15 11:46:08;;;;;;;7.87;6.33;;;;;;;11.12;77.70;101836.28;6119159;23;20221;-59
2021/10/15 11:48:37;;;;;;;7.70;6.03;;;;;;;11.18;77.57;101831.88;6117189;23;20184;-59
2021/10/15 11:51:04;;;;;;;7.80;6.33;;;;;;;11.22;78.02;101829.84;6115984;23;20154;-59